Time;durP1;ratioP1;P1;durP2;ratioP2;P2;SDS_P1;SDS_P2;PMS_P1;PMS_P2;Temp;Humidity;BMP_temperature;BMP_pressure;BME280_temperature;BME280_humidity;BME280_pressure;Samples;Min_cycle;Max_cycle;Signal;HPM_P1;HPM_P2
2021/05/06 00:30:50;;;;;;;1.05;0.95;;;;;;;6.18;65.02;98802.06;232464;1177;115892;-70
2021/05/06 00:35:52;;;;;;;1.60;1.50;;;;;;;6.04;64.57;98799.64;232170;1173;115394;-69
2021/05/06 01:12:46;;;;;;;2.43;1.50;;;;;;;5.60;64.82;98827.31;232985;1177;114791;-69
2021/05/06 01:17:50;;;;;;;4.20;2.10;;;;;;;5.55;65.41;98832.47;232627;1179;115070;-71
2021/05/06 01:22:54;;;;;;;1.93;1.77;;;;;;;5.49;65.37;98828.09;232746;1174;114757;-72
2021/05/06 01:28:02;;;;;;;1.83;1.00;;;;;;;5.41;65.63;98831.05;232146;1177;115196;-70
2021/05/06 01:38:49;;;;;;;4.43;2.47;;;;;;;5.28;65.86;98837.29;233629;1177;114948;-71
2021/05/06 01:49:48;;;;;;;2.20;2.10;;;;;;;5.16;66.08;98835.63;233781;1177;115325;-69
2021/05/06 02:00:19;;;;;;;4.27;2.80;;;;;;;5.07;66.37;98833.28;234490;1177;114713;-71
2021/05/06 02:05:23;;;;;;;6.30;2.20;;;;;;;5.04;66.73;98844.28;234184;1177;114620;-67
2021/05/06 02:10:28;;;;;;;5.25;2.35;;;;;;;5.03;66.97;98840.03;234235;1177;115214;-70
2021/05/06 02:15:41;;;;;;;4.30;2.13;;;;;;;4.96;66.62;98855.14;234096;1176;114723;-70
2021/05/06 02:20:48;;;;;;;4.30;2.20;;;;;;;4.91;66.54;98848.89;233386;1177;114964;-68
2021/05/06 02:25:51;;;;;;;4.13;1.60;;;;;;;4.89;66.78;98843.83;233163;1177;115492;-67
2021/05/06 02:30:55;;;;;;;5.85;2.45;;;;;;;4.84;67.06;98853.46;232443;1177;115816;-67
2021/05/06 02:35:58;;;;;;;3.05;1.80;;;;;;;4.78;67.15;98860.42;232687;1177;114451;-67
2021/05/06 02:41:03;;;;;;;3.17;1.90;;;;;;;4.68;67.57;98866.19;232159;1177;114933;-67
2021/05/06 02:46:07;;;;;;;3.30;1.95;;;;;;;4.64;67.67;98875.56;232565;1174;115542;-67
2021/05/06 02:51:11;;;;;;;5.30;2.07;;;;;;;4.57;67.29;98888.03;232882;1177;115894;-67
2021/05/06 03:06:55;;;;;;;4.60;2.00;;;;;;;4.46;67.86;98904.56;232587;1179;200926;-67
2021/05/06 03:22:51;;;;;;;4.10;2.20;;;;;;;4.58;67.98;98917.88;232251;1177;114972;-67
2021/05/06 03:28:03;;;;;;;2.75;1.20;;;;;;;4.82;68.07;98922.33;232654;1177;115185;-67
2021/05/06 04:16:38;;;;;;;5.60;1.55;;;;;;;9.58;59.30;98983.45;234546;1177;114380;-68
2021/05/06 04:37:24;;;;;;;2.98;2.45;;;;;;;10.31;57.10;99006.19;232551;1180;115627;-68
2021/05/06 04:43:12;;;;;;;1.70;1.30;;;;;;;10.51;56.42;99013.57;233252;1177;115938;-68
2021/05/06 04:53:39;;;;;;;3.90;1.37;;;;;;;9.87;56.85;99013.36;233014;1177;118858;-68
2021/05/06 04:59:03;;;;;;;5.30;1.60;;;;;;;9.25;56.81;99009.06;232611;1177;115891;-68
2021/05/06 05:04:14;;;;;;;0.95;0.95;;;;;;;9.19;56.67;99025.19;232450;1177;115364;-68
2021/05/06 05:25:00;;;;;;;5.00;1.53;;;;;;;23.20;42.08;99037.35;232762;1170;115457;-69
2021/05/06 05:30:06;;;;;;;4.60;1.10;;;;;;;24.85;39.23;99048.52;232258;1177;115916;-67
2021/05/06 05:40:39;;;;;;;5.40;1.67;;;;;;;25.90;35.35;99053.70;232806;1174;115618;-68
2021/05/06 05:56:35;;;;;;;4.03;1.60;;;;;;;22.98;33.19;99050.16;233556;1178;115153;-70
2021/05/06 06:01:37;;;;;;;3.30;2.00;;;;;;;20.84;34.29;99056.91;232977;1177;115947;-70
2021/05/06 06:06:42;;;;;;;7.05;2.15;;;;;;;18.87;36.24;99051.45;234426;1178;115677;-70
2021/05/06 06:11:45;;;;;;;7.75;2.10;;;;;;;17.08;37.00;99059.47;234354;1177;116255;-70
2021/05/06 06:16:49;;;;;;;4.70;1.40;;;;;;;15.98;37.67;99051.80;234466;1177;115034;-69
2021/05/06 06:21:59;;;;;;;4.30;1.30;;;;;;;15.28;38.69;99054.91;234432;1177;116068;-69
2021/05/06 06:27:04;;;;;;;4.20;1.90;;;;;;;14.51;39.95;99058.39;233259;1177;115692;-69
2021/05/06 06:32:12;;;;;;;4.30;1.45;;;;;;;14.15;40.37;99053.97;232077;1174;115285;-69
2021/05/06 06:37:17;;;;;;;2.87;1.80;;;;;;;13.46;40.83;99067.27;232171;1177;117510;-69
2021/05/06 06:42:23;;;;;;;2.80;1.35;;;;;;;12.97;41.85;99065.11;233530;1177;116136;-69
2021/05/06 06:47:27;;;;;;;2.40;1.33;;;;;;;12.62;42.75;99062.38;234001;1177;116227;-69
2021/05/06 06:52:31;;;;;;;3.60;1.10;;;;;;;12.71;43.46;99071.50;232584;1177;115729;-69
2021/05/06 06:57:36;;;;;;;8.95;2.25;;;;;;;13.92;42.26;99069.87;233767;1177;117526;-69
2021/05/06 07:02:40;;;;;;;3.03;1.55;;;;;;;14.40;41.90;99074.49;232646;1177;116675;-69
2021/05/06 07:07:43;;;;;;;2.45;1.20;;;;;;;15.18;41.54;99071.09;232698;1177;115483;-69
2021/05/06 07:12:46;;;;;;;1.68;1.58;;;;;;;15.71;41.78;99074.66;232406;1177;115525;-69
2021/05/06 07:17:48;;;;;;;1.30;1.10;;;;;;;16.27;40.46;99078.61;232395;1177;117665;-69
2021/05/06 07:22:52;;;;;;;5.03;1.30;;;;;;;16.46;40.06;99085.64;232573;1177;115756;-69
2021/05/06 07:28:07;;;;;;;1.75;1.60;;;;;;;16.40;39.87;99083.30;233043;1177;116340;-69
2021/05/06 07:33:14;;;;;;;2.73;1.15;;;;;;;16.87;40.77;99084.28;233372;1177;116399;-69
2021/05/06 07:38:20;;;;;;;5.27;1.60;;;;;;;16.97;40.15;99090.33;234009;1177;115954;-69
2021/05/06 07:43:30;;;;;;;1.33;1.23;;;;;;;16.76;39.63;99076.38;233623;1177;115531;-67
2021/05/06 07:48:35;;;;;;;3.15;1.00;;;;;;;16.79;39.38;99078.48;232349;1177;115556;-69
2021/05/06 07:58:52;;;;;;;1.50;1.10;;;;;;;15.95;39.02;99087.30;233431;1177;115792;-69
2021/05/06 08:03:55;;;;;;;2.05;1.85;;;;;;;14.88;39.20;99104.31;232165;1177;116410;-69
2021/05/06 08:08:58;;;;;;;3.93;2.20;;;;;;;14.09;39.69;99095.25;233733;1177;115509;-69
2021/05/06 08:14:01;;;;;;;3.63;1.83;;;;;;;14.08;40.32;99084.81;234453;1179;114764;-69
2021/05/06 08:19:04;;;;;;;3.18;1.40;;;;;;;14.36;40.98;99094.91;233838;1177;115740;-69
2021/05/06 08:24:08;;;;;;;2.15;1.95;;;;;;;14.69;41.08;99084.56;234447;1177;115454;-69
2021/05/06 08:29:12;;;;;;;5.33;2.23;;;;;;;14.86;41.28;99095.74;234535;1177;115805;-67
2021/05/06 08:34:15;;;;;;;2.00;1.80;;;;;;;15.21;40.88;99077.78;233698;1173;114845;-67
2021/05/06 08:39:18;;;;;;;3.40;1.70;;;;;;;15.51;40.37;99093.64;234051;1179;115577;-67
2021/05/06 08:44:27;;;;;;;2.20;1.48;;;;;;;15.61;39.74;99090.87;233350;1173;115113;-68
2021/05/06 08:49:35;;;;;;;3.53;1.73;;;;;;;15.59;39.28;99093.06;233797;1177;115648;-69
2021/05/06 08:54:42;;;;;;;2.85;1.10;;;;;;;15.54;39.56;99095.77;232636;1179;114884;-69
2021/05/06 08:59:48;;;;;;;8.00;2.50;;;;;;;15.47;39.26;99108.71;232747;1177;116295;-69
2021/05/06 09:04:50;;;;;;;1.83;1.20;;;;;;;15.61;40.08;99098.92;232760;1177;116042;-69
2021/05/06 09:09:54;;;;;;;2.80;1.30;;;;;;;15.65;39.95;99107.23;232156;1170;115465;-69
2021/05/06 09:15:06;;;;;;;1.50;1.40;;;;;;;15.66;39.42;99103.45;232620;1179;115132;-69
2021/05/06 09:20:20;;;;;;;1.80;1.70;;;;;;;14.90;38.52;99118.26;231982;1177;115207;-68
2021/05/06 09:25:37;;;;;;;1.37;0.97;;;;;;;15.22;39.52;99106.23;232444;1179;115479;-69
2021/05/06 09:30:51;;;;;;;2.14;1.48;;;;;;;15.37;39.87;99100.73;232237;1177;115093;-70
2021/05/06 09:36:14;;;;;;;9.53;2.60;;;;;;;15.51;39.42;99104.38;232737;1177;115189;-69
2021/05/06 09:41:19;;;;;;;2.70;1.80;;;;;;;15.78;39.92;99093.94;233036;1177;115605;-70
2021/05/06 09:46:30;;;;;;;2.30;2.20;;;;;;;15.73;38.83;99104.73;232866;1177;115565;-69
2021/05/06 09:51:40;;;;;;;2.93;1.75;;;;;;;15.75;38.86;99102.56;232527;1170;116483;-70
2021/05/06 09:56:44;;;;;;;3.07;1.70;;;;;;;15.98;39.48;99098.29;233376;1177;114770;-69
2021/05/06 10:01:48;;;;;;;2.68;1.65;;;;;;;16.30;39.75;99094.97;233564;1177;115715;-69
2021/05/06 10:07:09;;;;;;;2.75;1.50;;;;;;;16.23;38.56;99099.09;232107;1177;115029;-69
2021/05/06 10:12:15;;;;;;;1.45;1.35;;;;;;;15.68;38.41;99098.60;234281;1177;115701;-67
2021/05/06 10:17:19;;;;;;;6.25;2.00;;;;;;;15.23;38.56;99103.27;234225;1177;115181;-67
2021/05/06 10:22:27;;;;;;;1.93;1.80;;;;;;;14.85;39.12;99104.88;234510;1177;115240;-68
2021/05/06 10:27:40;;;;;;;2.10;1.63;;;;;;;15.35;39.82;99097.52;234530;1177;194081;-68
2021/05/06 10:32:46;;;;;;;2.23;2.13;;;;;;;15.75;39.67;99102.56;233400;1177;114820;-70
2021/05/06 10:37:58;;;;;;;3.73;2.13;;;;;;;15.21;38.97;99104.63;233811;1177;115540;-69
2021/05/06 10:43:28;;;;;;;2.47;2.20;;;;;;;14.55;39.20;99105.04;233237;1177;115516;-69
2021/05/06 10:48:58;;;;;;;1.68;1.50;;;;;;;14.32;40.68;99107.27;233379;1177;115493;-69
2021/05/06 10:54:27;;;;;;;2.90;1.95;;;;;;;14.89;40.20;99089.02;232230;1177;115471;-69
2021/05/06 10:59:37;;;;;;;1.43;1.33;;;;;;;15.26;41.21;99091.17;232594;1177;115974;-69
2021/05/06 11:04:42;;;;;;;2.00;1.90;;;;;;;14.98;40.70;99087.36;232784;1177;116700;-69
2021/05/06 11:09:50;;;;;;;3.15;2.45;;;;;;;14.37;40.91;99109.13;232433;1177;116262;-69
2021/05/06 11:15:02;;;;;;;2.23;1.70;;;;;;;13.38;42.21;99172.23;232442;1177;116169;-68
2021/05/06 11:20:09;;;;;;;2.20;2.00;;;;;;;12.66;44.74;99146.36;232755;1171;114806;-68
2021/05/06 11:30:31;;;;;;;1.73;1.63;;;;;;;13.11;47.37;99137.66;232857;1177;115264;-69
2021/05/06 11:35:53;;;;;;;2.80;2.57;;;;;;;13.00;47.84;99131.47;232270;1178;115553;-68
2021/05/06 11:40:59;;;;;;;2.00;1.90;;;;;;;12.67;47.04;99139.94;232051;1179;115410;-68
2021/05/06 11:46:13;;;;;;;2.20;1.40;;;;;;;12.73;46.44;99134.35;233043;1178;115750;-69
2021/05/06 11:51:37;;;;;;;1.47;1.27;;;;;;;13.31;45.76;99115.47;232981;1177;115494;-69
2021/05/06 11:57:02;;;;;;;1.15;1.15;;;;;;;13.80;45.61;99105.78;233227;1177;115231;-69
2021/05/06 12:02:09;;;;;;;2.53;1.60;;;;;;;14.13;45.12;99095.52;233151;1177;115723;-68
2021/05/06 12:07:19;;;;;;;2.17;1.93;;;;;;;13.73;44.00;99081.17;233571;1177;115111;-68
2021/05/06 12:12:25;;;;;;;2.30;2.10;;;;;;;13.83;44.47;99067.73;232928;1177;115532;-68
2021/05/06 12:17:29;;;;;;;1.50;1.35;;;;;;;14.08;44.26;99063.37;234542;1177;116839;-69
2021/05/06 12:22:33;;;;;;;0.60;0.60;;;;;;;14.26;43.24;99057.41;234537;1177;114771;-68
2021/05/06 12:27:37;;;;;;;1.70;1.60;;;;;;;14.25;42.58;99060.38;234493;1177;115109;-69
2021/05/06 12:32:46;;;;;;;1.65;0.90;;;;;;;14.37;41.93;99045.55;234254;1177;115766;-68
2021/05/06 12:37:54;;;;;;;1.95;1.75;;;;;;;14.57;42.80;99051.92;233286;1177;114978;-68
2021/05/06 12:42:58;;;;;;;1.48;1.38;;;;;;;14.66;41.58;99047.59;233032;1177;115577;-68
2021/05/06 12:48:02;;;;;;;5.90;1.93;;;;;;;14.67;42.06;99030.41;231943;1177;115788;-68
2021/05/06 12:53:09;;;;;;;1.70;1.60;;;;;;;14.38;41.69;99028.38;231864;1170;115305;-68
2021/05/06 12:58:24;;;;;;;1.50;1.40;;;;;;;14.28;42.10;99024.97;232782;1177;115454;-68
2021/05/06 13:03:35;;;;;;;1.50;1.50;;;;;;;14.22;41.86;99016.15;232606;1177;115618;-68
2021/05/06 13:08:44;;;;;;;1.40;1.40;;;;;;;14.03;40.76;99020.53;232693;1177;115391;-67
2021/05/06 13:13:50;;;;;;;1.93;1.83;;;;;;;13.94;41.02;99022.97;233037;1177;115699;-68
2021/05/06 13:18:59;;;;;;;3.50;1.50;;;;;;;14.29;40.65;98997.89;232430;1172;116120;-66
2021/05/06 13:24:04;;;;;;;1.40;1.30;;;;;;;14.53;41.08;98994.55;231964;1177;116147;-69
2021/05/06 13:29:14;;;;;;;1.30;1.20;;;;;;;14.62;40.61;98999.06;233477;1177;116073;-67
2021/05/06 13:34:26;;;;;;;1.70;1.60;;;;;;;14.89;40.17;98985.17;232671;1177;117109;-68
2021/05/06 13:39:34;;;;;;;5.03;1.53;;;;;;;15.00;39.76;98993.91;233019;1177;115785;-69
2021/05/06 13:44:38;;;;;;;3.35;1.55;;;;;;;14.92;39.39;98986.49;233088;1171;116353;-68
2021/05/06 13:49:43;;;;;;;1.30;1.20;;;;;;;14.93;39.54;98985.41;233275;1177;116006;-69
2021/05/06 13:54:47;;;;;;;1.80;1.23;;;;;;;14.69;38.72;98975.38;232947;1177;116843;-74
2021/05/06 13:59:50;;;;;;;3.10;1.70;;;;;;;14.36;39.06;98979.63;233799;1177;116786;-77
2021/05/06 14:04:54;;;;;;;2.13;1.68;;;;;;;14.08;39.86;98983.77;232507;1177;116720;-75
2021/05/06 14:09:58;;;;;;;2.00;1.60;;;;;;;13.70;39.09;98996.00;232934;1177;116817;-70
2021/05/06 14:15:02;;;;;;;2.03;1.77;;;;;;;13.33;40.00;99004.39;234142;1177;115064;-70
2021/05/06 14:20:06;;;;;;;1.80;1.70;;;;;;;12.90;41.03;99040.48;233314;1177;118399;-69
2021/05/06 14:25:10;;;;;;;2.45;2.30;;;;;;;12.32;42.56;99034.51;234115;1177;116794;-68
2021/05/06 14:30:14;;;;;;;1.73;1.63;;;;;;;12.12;44.35;99056.63;234353;1179;116886;-70
2021/05/06 14:35:18;;;;;;;3.70;1.30;;;;;;;12.08;44.67;99068.09;234040;1174;116876;-69
2021/05/06 14:40:30;;;;;;;3.10;1.90;;;;;;;11.89;45.68;99066.94;233193;1177;116757;-70
2021/05/06 14:45:34;;;;;;;3.00;2.80;;;;;;;11.67;46.58;99062.50;233904;1177;116642;-68
2021/05/06 14:50:38;;;;;;;2.53;1.90;;;;;;;11.38;47.37;99039.89;232320;1179;116314;-68
2021/05/06 14:55:41;;;;;;;1.73;1.63;;;;;;;11.24;47.77;99018.20;233296;1178;116306;-67
2021/05/06 15:00:46;;;;;;;1.10;1.05;;;;;;;11.63;48.67;99002.67;232969;1177;116545;-67
2021/05/06 15:05:49;;;;;;;1.43;1.27;;;;;;;12.05;48.14;99001.83;232824;1177;116544;-68
2021/05/06 15:10:52;;;;;;;1.17;1.17;;;;;;;12.17;47.41;98983.71;232252;1177;116052;-70
2021/05/06 15:15:56;;;;;;;1.50;1.40;;;;;;;12.21;47.80;98976.78;232732;1177;116175;-66
2021/05/06 15:21:00;;;;;;;1.47;1.17;;;;;;;12.20;47.54;98979.71;232618;1177;116360;-70
2021/05/06 15:26:03;;;;;;;1.05;0.75;;;;;;;12.13;47.60;98969.27;232564;1177;115803;-68
2021/05/06 15:31:07;;;;;;;6.57;5.97;;;;;;;12.06;47.77;98963.37;232738;1177;116689;-68
2021/05/06 15:36:16;;;;;;;5.90;4.30;;;;;;;11.98;47.53;98966.54;232089;1177;115681;-70
2021/05/06 15:41:20;;;;;;;2.13;2.03;;;;;;;11.89;47.66;98958.25;232046;1177;115139;-70
2021/05/06 15:46:24;;;;;;;1.43;1.30;;;;;;;11.83;48.44;98947.81;232071;1177;115211;-70
2021/05/06 15:51:30;;;;;;;1.80;1.70;;;;;;;11.60;48.46;98949.03;232318;1179;117595;-69
2021/05/06 15:56:50;;;;;;;1.70;1.60;;;;;;;11.34;49.17;98951.55;232662;1177;116100;-68
2021/05/06 16:01:54;;;;;;;1.17;1.10;;;;;;;11.58;49.41;98935.94;233574;1177;116882;-68
2021/05/06 16:06:58;;;;;;;1.90;1.38;;;;;;;11.66;49.13;98938.09;232539;1179;117344;-69
2021/05/06 16:12:03;;;;;;;4.53;1.73;;;;;;;11.57;48.88;98926.33;234072;1177;116439;-68
2021/05/06 16:17:10;;;;;;;0.88;0.88;;;;;;;11.42;49.12;98939.58;232803;1177;115583;-68
2021/05/06 16:22:14;;;;;;;1.50;1.23;;;;;;;11.56;49.15;98915.91;234664;1177;115876;-68
2021/05/06 16:27:18;;;;;;;1.55;1.45;;;;;;;11.73;49.27;98929.84;234536;1177;137491;-69
2021/05/06 16:32:25;;;;;;;2.00;0.80;;;;;;;11.85;48.98;98918.98;234491;1177;116148;-68
2021/05/06 16:47:58;;;;;;;1.53;1.43;;;;;;;11.44;48.69;98938.27;234054;1177;115952;-68
2021/05/06 16:53:01;;;;;;;1.70;1.60;;;;;;;11.34;48.12;98935.53;233268;1179;116047;-69
2021/05/06 16:58:06;;;;;;;0.80;0.55;;;;;;;11.23;48.17;98947.23;232749;1179;117713;-71
2021/05/06 17:03:11;;;;;;;3.95;1.70;;;;;;;11.07;48.69;98935.65;233241;1177;116147;-66
2021/05/06 17:08:15;;;;;;;1.60;1.47;;;;;;;11.00;49.22;98940.42;232651;1173;115299;-67
2021/05/06 17:13:19;;;;;;;1.47;1.30;;;;;;;10.95;49.72;98971.58;232302;1177;115876;-67
2021/05/06 17:18:37;;;;;;;1.18;0.88;;;;;;;10.74;50.16;98987.40;231979;1177;115921;-69
2021/05/06 17:23:43;;;;;;;;;;;;;;;10.16;51.78;99008.64;232925;1177;116803;-70
2021/05/06 17:28:47;;;;;;;2.83;0.93;;;;;;;9.60;53.63;98968.85;233889;1177;103124;-69
2021/05/06 17:33:51;;;;;;;1.47;1.30;;;;;;;9.28;54.86;98962.56;232298;1177;115157;-69
2021/05/06 17:38:59;;;;;;;1.07;0.97;;;;;;;9.06;56.17;98979.28;232005;1177;114828;-70
2021/05/06 17:44:03;;;;;;;2.60;1.88;;;;;;;8.79;57.00;98970.36;232819;1177;115639;-69
2021/05/06 17:49:06;;;;;;;3.30;2.50;;;;;;;8.61;57.52;98962.61;232888;1177;115286;-69
2021/05/06 17:54:11;;;;;;;2.05;1.65;;;;;;;8.48;58.34;98960.27;232996;1177;115366;-71
2021/05/06 17:59:14;;;;;;;2.50;1.60;;;;;;;8.33;58.88;98964.27;232434;1180;115094;-69
2021/05/06 18:04:17;;;;;;;2.80;1.40;;;;;;;8.20;59.21;98969.05;232202;1177;115430;-68
2021/05/06 18:09:26;;;;;;;1.40;1.30;;;;;;;8.05;60.04;98973.02;233603;1178;115214;-70
2021/05/06 18:14:31;;;;;;;2.30;2.15;;;;;;;8.02;60.38;98980.64;232048;1177;116407;-71
2021/05/06 18:19:42;;;;;;;2.80;1.85;;;;;;;8.04;61.23;98976.71;233484;1178;117505;-72
2021/05/06 18:24:47;;;;;;;1.80;1.45;;;;;;;8.08;61.31;98969.89;232516;1177;116580;-68
2021/05/06 18:29:50;;;;;;;3.05;2.20;;;;;;;8.06;61.20;98958.70;234613;1177;117076;-68
2021/05/06 18:34:53;;;;;;;2.50;1.90;;;;;;;7.99;61.38;98958.03;234356;1177;115749;-67
2021/05/06 18:39:55;;;;;;;3.10;2.03;;;;;;;7.88;61.96;98958.09;233112;1179;117035;-69
2021/05/06 18:44:58;;;;;;;1.78;1.68;;;;;;;7.74;62.05;98961.00;233564;1177;117303;-69
2021/05/06 18:50:01;;;;;;;1.63;1.50;;;;;;;7.64;63.11;98965.31;233271;1173;116464;-67
2021/05/06 18:55:05;;;;;;;10.00;2.05;;;;;;;7.38;63.79;98969.25;232571;1180;117180;-67
2021/05/06 19:00:08;;;;;;;1.93;1.70;;;;;;;7.23;63.44;98975.05;232835;1178;116061;-67
2021/05/06 19:05:12;;;;;;;4.15;1.70;;;;;;;7.08;63.84;98983.45;232062;1177;116635;-68
2021/05/06 19:10:16;;;;;;;2.50;1.80;;;;;;;6.91;64.36;98971.94;232020;1177;116658;-69
2021/05/06 19:15:20;;;;;;;2.48;1.73;;;;;;;6.79;64.84;98979.05;232022;1179;138292;-70
2021/05/06 19:20:28;;;;;;;2.98;1.83;;;;;;;6.71;65.63;98988.16;232689;1179;115665;-69
2021/05/06 19:25:34;;;;;;;1.95;1.60;;;;;;;6.72;66.60;98989.77;232443;1177;117522;-70
2021/05/06 19:30:39;;;;;;;3.67;2.53;;;;;;;6.82;65.93;98983.89;232143;1177;115981;-70
2021/05/06 19:35:43;;;;;;;3.30;2.67;;;;;;;6.87;66.34;98985.86;232112;1177;115832;-70
2021/05/06 19:40:53;;;;;;;2.88;2.55;;;;;;;6.80;66.37;98985.96;232191;1177;115541;-70
2021/05/06 19:51:11;;;;;;;2.80;2.15;;;;;;;6.82;67.22;98983.09;232614;1177;115947;-69
2021/05/06 19:56:15;;;;;;;3.47;2.13;;;;;;;6.85;67.69;98977.33;233123;1177;115896;-69
2021/05/06 20:01:18;;;;;;;6.40;4.10;;;;;;;6.93;67.83;98975.16;233129;1178;114441;-70
2021/05/06 20:06:22;;;;;;;7.28;5.75;;;;;;;6.99;67.36;98978.74;232950;1177;116145;-69
2021/05/06 20:11:25;;;;;;;4.80;3.40;;;;;;;6.87;67.71;98970.77;233791;1177;115626;-72
2021/05/06 20:16:29;;;;;;;8.70;5.20;;;;;;;6.76;68.01;98971.55;234105;1177;114822;-72
2021/05/06 20:21:52;;;;;;;6.30;4.75;;;;;;;6.73;68.09;98972.01;234245;1177;114721;-71
2021/05/06 20:26:56;;;;;;;7.20;5.37;;;;;;;6.78;68.39;98964.19;234222;1177;115690;-71
2021/05/06 20:32:10;;;;;;;8.00;3.90;;;;;;;6.76;67.74;98958.31;234560;1177;114589;-70
2021/05/06 20:37:15;;;;;;;18.00;12.63;;;;;;;6.68;68.80;98961.31;234475;1177;114959;-70
2021/05/06 20:42:21;;;;;;;13.70;8.90;;;;;;;6.70;69.30;98951.30;233778;1177;114813;-70
2021/05/06 20:47:25;;;;;;;22.10;11.47;;;;;;;6.72;69.32;98951.88;234036;1177;115192;-69
2021/05/06 20:52:30;;;;;;;33.20;19.00;;;;;;;6.78;69.45;98950.14;233789;1177;115861;-70
2021/05/06 20:57:38;;;;;;;19.33;13.83;;;;;;;6.77;69.17;98933.44;233233;1177;116700;-70
2021/05/06 21:02:42;;;;;;;19.13;15.00;;;;;;;6.75;69.31;98930.21;232239;1177;116070;-69
2021/05/06 21:07:48;;;;;;;21.95;16.60;;;;;;;6.77;70.19;98933.44;233007;1177;117912;-68
2021/05/06 21:12:51;;;;;;;43.03;20.50;;;;;;;6.78;69.33;98918.35;232978;1177;116499;-69
2021/05/06 21:17:55;;;;;;;50.83;20.37;;;;;;;6.73;69.22;98921.69;232968;1177;116474;-67
2021/05/06 21:22:59;;;;;;;25.27;14.07;;;;;;;6.68;69.63;98924.23;233108;1177;117822;-67
2021/05/06 21:28:03;;;;;;;56.70;26.78;;;;;;;6.53;70.01;98916.72;232949;1177;115753;-67
2021/05/06 21:33:08;;;;;;;28.57;15.17;;;;;;;6.50;70.19;98924.31;232314;1177;115859;-69
2021/05/06 21:38:13;;;;;;;45.95;24.90;;;;;;;6.55;70.54;98919.15;232640;1177;115001;-70
2021/05/06 21:43:17;;;;;;;39.73;23.63;;;;;;;6.58;70.75;98910.75;232203;1177;117071;-70
2021/05/06 21:48:21;;;;;;;36.85;20.20;;;;;;;6.61;70.95;98903.16;232208;1177;115854;-70
2021/05/06 21:53:25;;;;;;;21.38;15.20;;;;;;;6.57;71.17;98895.90;232241;1177;115876;-70
2021/05/06 21:58:29;;;;;;;25.50;18.20;;;;;;;6.51;71.08;98892.31;232112;1177;210313;-70
2021/05/06 22:03:33;;;;;;;25.95;17.80;;;;;;;6.54;71.65;98886.56;232549;1173;115658;-71
2021/05/06 22:08:37;;;;;;;21.87;15.57;;;;;;;6.63;71.67;98887.04;233321;1177;115854;-71
2021/05/06 22:13:42;;;;;;;30.03;17.43;;;;;;;6.70;71.29;98877.95;233283;1177;116961;-69
2021/05/06 22:18:46;;;;;;;32.80;21.10;;;;;;;6.79;71.29;98878.39;233554;1177;116080;-69
2021/05/06 22:23:49;;;;;;;34.13;19.90;;;;;;;6.91;71.12;98870.45;233963;1177;116203;-70
2021/05/06 22:28:53;;;;;;;38.90;22.17;;;;;;;7.00;71.41;98864.58;232619;1177;116565;-69
2021/05/06 22:33:57;;;;;;;30.85;20.98;;;;;;;7.00;70.86;98859.27;233707;1173;116315;-68
2021/05/06 22:39:00;;;;;;;36.30;26.43;;;;;;;6.95;71.13;98850.41;234359;1177;116402;-68
2021/05/06 22:44:04;;;;;;;27.38;17.83;;;;;;;6.86;71.99;98857.09;233581;1179;116174;-68
2021/05/06 22:49:07;;;;;;;34.60;26.30;;;;;;;6.90;71.87;98864.34;233410;1179;204670;-69
2021/05/06 22:54:11;;;;;;;41.37;25.50;;;;;;;6.98;71.76;98871.14;233144;1178;117099;-67
2021/05/06 22:59:17;;;;;;;36.33;23.63;;;;;;;7.00;71.87;98879.66;232767;1179;116369;-67
2021/05/06 23:04:22;;;;;;;27.75;18.15;;;;;;;6.94;72.10;98884.05;233023;1179;116423;-67
2021/05/06 23:09:26;;;;;;;38.47;24.40;;;;;;;6.86;72.41;98886.23;233258;1177;116764;-67
2021/05/06 23:14:30;;;;;;;38.00;22.50;;;;;;;6.86;72.27;98889.69;232434;1177;116391;-70
2021/05/06 23:19:33;;;;;;;26.50;18.20;;;;;;;6.84;72.35;98875.86;232468;1177;127779;-70
2021/05/06 23:24:36;;;;;;;27.33;19.27;;;;;;;6.89;73.14;98868.03;232748;1178;116460;-70
2021/05/06 23:29:39;;;;;;;23.90;16.75;;;;;;;6.89;73.26;98862.73;231990;1177;116775;-71
2021/05/06 23:34:43;;;;;;;30.55;20.45;;;;;;;6.96;73.01;98865.27;232725;1177;115991;-70
2021/05/06 23:39:46;;;;;;;30.53;20.95;;;;;;;6.95;73.01;98856.52;232720;1177;115665;-68
2021/05/06 23:44:50;;;;;;;38.80;22.90;;;;;;;6.93;73.21;98853.29;232489;1177;115299;-69
2021/05/06 23:49:53;;;;;;;39.20;26.40;;;;;;;6.90;73.39;98852.94;232258;1177;115730;-70
2021/05/06 23:54:58;;;;;;;35.10;22.05;;;;;;;6.96;73.61;98842.23;232804;1177;117217;-69
